Time;durP1;ratioP1;P1;durP2;ratioP2;P2;SDS_P1;SDS_P2;PMS_P1;PMS_P2;Temp;Humidity;BMP_temperature;BMP_pressure;BME280_temperature;BME280_humidity;BME280_pressure;Samples;Min_cycle;Max_cycle;Signal;HPM_P1;HPM_P2
2023/08/17 00:01:50;;;;;;;8.10;5.40;;;;;;;23.36;65.24;98268.31;4985648;28;20050;-80
2023/08/17 00:04:58;;;;;;;6.45;5.38;;;;;;;23.97;64.85;98359.78;5020736;28;20118;-81
2023/08/17 00:09:04;;;;;;;6.57;5.55;;;;;;;23.87;65.32;98369.19;4945987;29;20079;-80
2023/08/17 00:12:43;;;;;;;7.30;5.78;;;;;;;23.76;65.71;98402.84;5025419;28;20045;-79
2023/08/17 00:15:41;;;;;;;6.88;5.45;;;;;;;23.68;65.84;98352.25;5020131;28;20044;-80
2023/08/17 00:19:10;;;;;;;6.88;5.70;;;;;;;23.86;65.71;98397.84;5026810;28;20047;-80
2023/08/17 00:22:42;;;;;;;6.78;5.60;;;;;;;23.79;66.03;98397.53;5055067;28;20108;-80
2023/08/17 00:27:03;;;;;;;6.88;5.88;;;;;;;23.33;66.50;98334.13;5054073;28;20147;-80
2023/08/17 00:30:46;;;;;;;8.25;6.00;;;;;;;23.15;67.24;98305.03;5030674;28;20606;-80
2023/08/17 01:03:53;;;;;;;7.50;5.95;;;;;;;22.23;72.62;98349.19;5164788;22;20045;-80
2023/08/17 01:06:26;;;;;;;6.72;5.10;;;;;;;22.62;71.63;98387.63;5031871;28;20033;-82
2023/08/17 01:09:06;;;;;;;6.63;4.32;;;;;;;22.52;71.93;98394.19;5018484;28;20063;-84
2023/08/17 02:07:47;;;;;;;1.90;1.77;;;;;;;21.63;75.79;98344.16;5031592;28;20140;-79
2023/08/17 02:10:21;;;;;;;2.53;2.33;;;;;;;21.66;75.68;98351.75;4998765;28;20492;-77
2023/08/17 02:13:36;;;;;;;3.90;2.20;;;;;;;21.00;75.75;98261.28;4996038;28;20504;-78
2023/08/17 02:17:08;;;;;;;3.60;2.28;;;;;;;21.58;75.81;98338.81;5012541;28;20117;-79
2023/08/17 02:21:02;;;;;;;3.35;2.42;;;;;;;21.00;75.92;98244.88;5001078;28;20129;-79
2023/08/17 02:23:54;;;;;;;5.57;2.78;;;;;;;21.53;76.66;98318.91;5017251;28;20128;-79
2023/08/17 02:27:03;;;;;;;;;;;;;;;;;;;;;
2023/08/17 02:34:09;;;;;;;4.35;3.22;;;;;;;21.45;75.91;98284.06;4950187;28;20049;-80
2023/08/17 02:38:12;;;;;;;4.30;3.20;;;;;;;21.65;75.58;98303.53;4950536;28;20041;-78
2023/08/17 02:46:15;;;;;;;4.80;4.05;;;;;;;21.09;75.00;98204.69;5015813;28;20120;-79
2023/08/17 02:49:00;;;;;;;4.93;3.90;;;;;;;21.82;75.01;98289.13;5009847;28;20034;-78
2023/08/17 02:51:30;;;;;;;5.28;4.05;;;;;;;21.92;74.50;98284.19;4985095;28;20046;-79
2023/08/17 03:11:01;;;;;;;4.38;3.97;;;;;;;22.07;73.40;98273.91;5343046;22;20110;-80
2023/08/17 03:25:18;;;;;;;4.35;3.95;;;;;;;21.72;74.24;98272.91;5339439;22;20056;-81
2023/08/17 03:27:49;;;;;;;5.85;4.22;;;;;;;21.87;74.49;98292.53;5043290;28;20048;-81
2023/08/17 03:31:06;;;;;;;4.57;3.47;;;;;;;21.97;74.18;98296.94;5030247;28;20033;-80
2023/08/17 03:38:42;;;;;;;4.05;3.70;;;;;;;21.39;73.94;98203.91;4966920;28;20074;-81
2023/08/17 04:22:23;;;;;;;4.40;4.00;;;;;;;22.06;74.51;98316.19;4864678;29;20080;-80
2023/08/17 04:29:44;;;;;;;5.97;4.38;;;;;;;21.80;75.10;98316.81;4875076;29;20047;-82
2023/08/17 04:32:16;;;;;;;5.15;4.20;;;;;;;21.40;76.36;98282.22;4836399;29;20441;-81
2023/08/17 04:34:43;;;;;;;6.30;4.65;;;;;;;21.38;76.57;98283.69;4908737;28;20051;-81
2023/08/17 04:37:30;;;;;;;5.22;4.40;;;;;;;21.26;76.74;98270.56;4927761;28;20035;-82
2023/08/17 04:40:12;;;;;;;5.63;4.45;;;;;;;20.98;76.66;98220.50;4939812;29;20494;-81
2023/08/17 04:42:41;;;;;;;5.20;4.70;;;;;;;21.29;76.80;98269.91;4926731;28;20035;-79
2023/08/17 04:45:14;;;;;;;6.85;4.50;;;;;;;21.34;76.32;98272.53;4926005;28;20038;-80
2023/08/17 04:48:25;;;;;;;6.45;4.20;;;;;;;21.53;76.95;98318.91;4959492;28;20138;-81
2023/08/17 04:51:12;;;;;;;5.32;4.32;;;;;;;21.40;76.04;98282.22;5005302;28;20509;-81
2023/08/17 04:54:11;;;;;;;5.65;4.78;;;;;;;21.41;76.21;98283.84;5062778;28;20032;-81
2023/08/17 04:57:28;;;;;;;7.10;4.97;;;;;;;21.22;76.31;98242.13;5054309;28;20102;-80
2023/08/17 05:00:00;;;;;;;5.28;4.78;;;;;;;21.68;76.45;98305.63;5028812;28;20033;-80
2023/08/17 05:02:56;;;;;;;7.53;4.50;;;;;;;21.57;76.45;98287.81;5030126;28;20052;-80
2023/08/17 05:05:35;;;;;;;5.85;4.50;;;;;;;21.61;76.85;98308.00;5063422;28;20045;-81
2023/08/17 05:08:12;;;;;;;5.88;5.30;;;;;;;21.30;76.71;98268.78;5030469;28;20076;-80
2023/08/17 05:10:41;;;;;;;5.00;4.50;;;;;;;21.71;76.46;98305.00;5010897;28;20045;-79
2023/08/17 05:13:21;;;;;;;5.95;4.63;;;;;;;21.76;75.73;98302.13;5025153;28;20043;-80
2023/08/17 05:15:46;;;;;;;5.15;4.65;;;;;;;21.82;76.11;98303.59;5020932;28;20498;-81
2023/08/17 05:18:13;;;;;;;4.70;4.30;;;;;;;21.65;75.77;98273.38;5013403;28;20522;-80
2023/08/17 05:20:38;;;;;;;5.60;4.95;;;;;;;21.84;75.87;98300.59;5004708;28;20037;-81
2023/08/17 05:23:04;;;;;;;7.15;4.47;;;;;;;21.54;75.68;98239.09;5030558;28;20111;-81
2023/08/17 05:25:29;;;;;;;6.50;5.35;;;;;;;21.71;75.19;98260.31;5004201;28;20047;-81
2023/08/17 05:27:55;;;;;;;5.57;4.38;;;;;;;21.79;75.50;98257.66;5013550;28;20024;-80
2023/08/17 05:30:20;;;;;;;5.03;4.57;;;;;;;21.71;75.08;98230.97;5033322;28;20490;-80
2023/08/17 05:32:46;;;;;;;5.32;4.82;;;;;;;22.20;75.20;98297.69;5026941;28;20044;-82
2023/08/17 05:35:11;;;;;;;5.50;4.72;;;;;;;22.30;74.89;98314.69;5017089;28;20037;-80
2023/08/17 05:37:37;;;;;;;5.43;4.43;;;;;;;22.29;74.88;98293.03;5020444;28;20031;-80
2023/08/17 05:40:04;;;;;;;5.35;4.85;;;;;;;22.22;74.48;98257.03;5023893;28;20056;-81
2023/08/17 05:42:29;;;;;;;7.53;5.22;;;;;;;22.24;73.94;98263.78;5012897;28;20025;-79
2023/08/17 05:44:55;;;;;;;7.45;4.75;;;;;;;22.50;73.96;98299.53;5038962;28;20040;-77
2023/08/17 05:47:21;;;;;;;8.23;4.75;;;;;;;22.46;73.95;98304.06;5005988;28;20438;-79
2023/08/17 05:49:47;;;;;;;6.07;4.97;;;;;;;22.47;73.59;98297.47;5015223;28;20119;-78
2023/08/17 05:52:13;;;;;;;7.25;4.47;;;;;;;22.40;72.94;98266.94;5032101;28;20074;-81
2023/08/17 05:54:38;;;;;;;6.47;4.90;;;;;;;22.54;73.42;98270.34;5038728;28;20045;-81
2023/08/17 05:57:04;;;;;;;8.30;5.03;;;;;;;22.98;73.06;98308.56;5006021;28;20029;-78
2023/08/17 05:59:30;;;;;;;7.28;5.93;;;;;;;22.90;72.73;98281.06;5048597;28;20130;-79
2023/08/17 06:02:00;;;;;;;9.25;5.90;;;;;;;23.01;72.33;98282.41;5049468;28;20027;-79
2023/08/17 06:04:26;;;;;;;9.43;6.30;;;;;;;22.92;71.88;98246.66;5008874;28;20032;-79
2023/08/17 06:06:52;;;;;;;7.63;6.10;;;;;;;23.38;71.70;98308.44;5005531;28;20072;-78
2023/08/17 06:09:17;;;;;;;7.95;6.45;;;;;;;23.47;71.16;98295.47;5029924;28;20041;-76
2023/08/17 06:11:43;;;;;;;9.27;6.22;;;;;;;23.51;70.99;98301.94;5021502;28;20024;-79
2023/08/17 06:14:08;;;;;;;12.02;7.07;;;;;;;23.57;71.66;98306.16;5039197;28;20127;-78
2023/08/17 06:16:35;;;;;;;10.00;6.72;;;;;;;23.73;71.08;98304.50;5025399;28;20024;-82
2023/08/17 06:19:01;;;;;;;9.13;7.47;;;;;;;23.84;70.01;98300.25;5032836;28;20052;-80
2023/08/17 06:21:26;;;;;;;11.50;7.25;;;;;;;23.99;68.43;98308.00;5018859;28;20055;-81
2023/08/17 06:23:51;;;;;;;9.13;7.32;;;;;;;24.17;67.71;98315.06;5012075;28;20060;-79
2023/08/17 06:26:17;;;;;;;7.82;6.95;;;;;;;23.99;66.78;98263.97;5027708;28;20405;-78
2023/08/17 06:28:43;;;;;;;8.07;7.28;;;;;;;24.42;65.87;98322.41;5016263;28;20132;-80
2023/08/17 06:31:09;;;;;;;7.57;6.78;;;;;;;24.42;65.59;98316.91;5029864;28;20056;-79
2023/08/17 06:33:34;;;;;;;7.97;7.18;;;;;;;24.59;65.05;98311.31;5028915;28;20391;-81
2023/08/17 06:36:00;;;;;;;8.55;7.18;;;;;;;24.67;64.88;98306.88;5026027;28;20056;-77
2023/08/17 06:38:25;;;;;;;8.50;6.93;;;;;;;24.68;64.66;98303.81;5031675;28;20044;-82
2023/08/17 06:40:52;;;;;;;8.73;6.85;;;;;;;24.80;63.50;98310.56;5012767;28;20361;-80
2023/08/17 06:43:17;;;;;;;7.70;7.00;;;;;;;24.86;63.08;98307.28;5034989;28;20037;-80
2023/08/17 06:45:43;;;;;;;9.20;7.45;;;;;;;24.94;63.22;98306.41;5025215;28;20074;-79
2023/08/17 06:48:08;;;;;;;12.50;7.25;;;;;;;25.01;63.55;98314.13;5027899;28;20028;-79
2023/08/17 06:50:33;;;;;;;7.72;7.00;;;;;;;25.04;63.50;98299.69;5044997;28;20455;-80
2023/08/17 06:53:00;;;;;;;9.57;7.78;;;;;;;24.93;63.62;98273.66;5031337;28;20037;-81
2023/08/17 06:55:25;;;;;;;9.38;7.10;;;;;;;24.81;62.91;98257.88;5027249;28;20020;-80
2023/08/17 06:57:51;;;;;;;9.75;6.68;;;;;;;25.26;62.92;98310.38;5011998;28;20545;-80
2023/08/17 07:00:20;;;;;;;7.03;6.30;;;;;;;25.27;62.54;98314.75;5008979;28;20026;-80
2023/08/17 07:02:50;;;;;;;7.95;6.70;;;;;;;25.31;62.00;98315.69;5015313;28;20033;-81
2023/08/17 07:05:15;;;;;;;7.72;6.95;;;;;;;25.39;62.60;98323.88;5034798;28;20043;-79
2023/08/17 07:07:42;;;;;;;7.82;7.03;;;;;;;25.40;62.63;98314.47;5041695;28;20024;-78
2023/08/17 07:10:08;;;;;;;10.23;7.38;;;;;;;25.55;61.69;98310.31;5005273;28;20041;-80
2023/08/17 07:12:33;;;;;;;10.63;6.97;;;;;;;25.49;62.52;98300.63;5026262;28;20399;-79
2023/08/17 07:14:59;;;;;;;8.93;7.60;;;;;;;25.76;62.42;98327.63;5044468;28;20029;-80
2023/08/17 07:17:24;;;;;;;7.97;7.18;;;;;;;25.81;62.69;98324.63;5028368;28;20036;-79
2023/08/17 07:19:49;;;;;;;8.27;7.30;;;;;;;25.87;62.01;98322.47;5014932;28;20036;-79
2023/08/17 07:22:16;;;;;;;8.55;7.72;;;;;;;25.70;62.20;98293.09;5027353;28;20024;-80
2023/08/17 07:24:42;;;;;;;8.20;7.10;;;;;;;25.93;61.97;98321.91;5026151;28;20075;-81
2023/08/17 07:27:07;;;;;;;7.55;6.85;;;;;;;26.02;61.39;98308.81;5014423;28;20024;-79
2023/08/17 07:29:32;;;;;;;8.20;7.40;;;;;;;26.14;61.24;98323.84;5024452;28;20495;-81
2023/08/17 07:32:01;;;;;;;8.50;7.60;;;;;;;26.11;61.62;98321.75;5017708;28;20017;-79
2023/08/17 07:34:27;;;;;;;9.63;7.68;;;;;;;26.19;60.79;98312.56;5034032;28;20040;-80
2023/08/17 07:36:52;;;;;;;9.65;7.32;;;;;;;26.35;60.92;98321.81;5027103;28;20021;-80
2023/08/17 07:39:18;;;;;;;9.38;7.47;;;;;;;26.39;60.57;98308.91;5027148;28;20076;-79
2023/08/17 07:41:44;;;;;;;8.88;7.72;;;;;;;26.46;60.19;98306.38;5044945;28;20098;-79
2023/08/17 07:44:09;;;;;;;8.02;7.22;;;;;;;26.63;60.17;98328.22;5026723;28;20037;-79
2023/08/17 07:46:35;;;;;;;9.25;8.45;;;;;;;26.66;60.12;98316.50;5029919;28;20022;-79
2023/08/17 07:49:00;;;;;;;8.45;7.35;;;;;;;26.76;59.68;98326.31;5008859;28;20063;-81
2023/08/17 07:51:25;;;;;;;10.90;8.38;;;;;;;26.77;59.08;98317.66;5027884;28;20031;-80
2023/08/17 07:53:51;;;;;;;8.73;7.82;;;;;;;26.87;59.09;98321.91;5007806;28;20108;-81
2023/08/17 07:56:16;;;;;;;9.10;8.13;;;;;;;26.90;59.39;98319.28;5029991;28;20112;-80
2023/08/17 07:58:42;;;;;;;9.55;8.57;;;;;;;26.96;59.85;98323.41;5027354;28;20044;-79
2023/08/17 08:01:07;;;;;;;8.68;7.78;;;;;;;26.89;59.59;98314.88;5044306;28;20067;-80
2023/08/17 08:03:33;;;;;;;9.52;7.70;;;;;;;27.03;59.69;98326.38;5023627;28;20037;-80
2023/08/17 08:05:58;;;;;;;9.82;7.47;;;;;;;27.13;58.81;98312.09;5033420;28;20332;-79
2023/08/17 08:08:23;;;;;;;8.98;8.00;;;;;;;27.30;57.72;98316.53;5047253;28;20040;-79
2023/08/17 08:10:49;;;;;;;9.90;8.10;;;;;;;27.30;58.57;98314.56;5026472;28;20054;-80
2023/08/17 08:13:14;;;;;;;9.35;8.20;;;;;;;27.31;58.48;98299.56;5006520;28;20025;-80
2023/08/17 08:15:39;;;;;;;9.13;8.27;;;;;;;27.40;58.68;98308.56;5013696;28;20107;-80
2023/08/17 08:18:05;;;;;;;10.70;8.20;;;;;;;27.40;58.58;98319.63;5023383;28;20052;-81
2023/08/17 08:20:31;;;;;;;9.27;7.80;;;;;;;27.49;57.47;98304.84;5000000;28;20113;-81
2023/08/17 08:22:56;;;;;;;8.35;7.55;;;;;;;27.65;57.24;98314.00;5032756;28;20090;-82
2023/08/17 08:25:22;;;;;;;10.05;8.30;;;;;;;27.61;58.00;98321.41;5009927;28;20529;-80
2023/08/17 08:27:47;;;;;;;8.73;7.82;;;;;;;27.64;57.23;98304.06;5043120;28;20040;-80
2023/08/17 08:30:12;;;;;;;10.15;8.38;;;;;;;27.76;57.11;98304.81;5032991;28;20031;-78
2023/08/17 08:32:38;;;;;;;8.52;7.63;;;;;;;27.83;57.80;98320.81;5016059;28;20035;-80
2023/08/17 08:35:04;;;;;;;9.13;8.27;;;;;;;27.82;57.84;98324.78;5025891;28;20035;-80
2023/08/17 08:37:29;;;;;;;8.80;8.00;;;;;;;27.64;57.67;98290.22;5011890;28;20542;-79
2023/08/17 08:39:55;;;;;;;9.18;8.35;;;;;;;27.85;57.32;98308.25;5025839;28;20031;-81
2023/08/17 08:42:31;;;;;;;12.85;7.70;;;;;;;27.84;57.46;98290.00;5039380;28;20406;-82
2023/08/17 08:44:57;;;;;;;8.15;7.45;;;;;;;28.14;57.68;98309.84;4989012;28;20057;-81
2023/08/17 08:47:24;;;;;;;10.25;8.40;;;;;;;28.15;56.22;98322.50;5023611;28;20052;-81
2023/08/17 08:50:01;;;;;;;8.35;7.53;;;;;;;28.00;57.36;98310.28;5025501;28;20108;-81
2023/08/17 08:52:33;;;;;;;9.32;8.18;;;;;;;28.19;57.15;98306.00;5008124;28;20064;-80
2023/08/17 08:54:59;;;;;;;8.73;7.78;;;;;;;28.15;56.92;98299.53;5029262;28;20036;-82
2023/08/17 08:57:25;;;;;;;8.48;7.60;;;;;;;28.29;55.54;98300.69;5032568;28;20078;-80
2023/08/17 08:59:51;;;;;;;8.35;7.50;;;;;;;28.38;57.24;98295.78;5031734;28;20041;-81
2023/08/17 09:02:16;;;;;;;9.45;8.52;;;;;;;28.49;57.27;98288.56;5032087;28;20364;-80
2023/08/17 09:04:45;;;;;;;8.77;7.88;;;;;;;28.68;54.78;98305.25;5022349;28;20467;-81
2023/08/17 09:07:13;;;;;;;9.57;8.38;;;;;;;28.71;55.06;98300.97;5009474;28;20447;-81
2023/08/17 09:09:38;;;;;;;8.45;7.55;;;;;;;28.69;54.86;98281.94;5029147;28;20040;-80
2023/08/17 09:12:07;;;;;;;12.75;8.00;;;;;;;28.75;56.00;98285.22;5029209;28;20078;-80
2023/08/17 09:14:32;;;;;;;9.35;8.45;;;;;;;28.71;55.73;98296.22;5020861;28;20081;-80
2023/08/17 09:17:02;;;;;;;8.40;7.60;;;;;;;28.79;55.32;98291.66;5003178;28;20022;-82
2023/08/17 09:19:33;;;;;;;10.07;8.10;;;;;;;28.47;55.72;98254.06;5047581;28;20040;-82
2023/08/17 09:22:00;;;;;;;10.25;8.43;;;;;;;28.63;56.15;98285.34;5014780;28;20053;-82
2023/08/17 09:24:37;;;;;;;9.20;8.25;;;;;;;28.55;54.42;98289.88;5023758;28;20028;-80
2023/08/17 09:27:03;;;;;;;11.45;8.35;;;;;;;28.31;55.51;98248.50;4996914;28;20041;-83
2023/08/17 09:29:36;;;;;;;9.13;8.20;;;;;;;28.70;56.98;98294.63;5017186;28;20039;-82
2023/08/17 09:32:07;;;;;;;8.82;8.00;;;;;;;28.87;55.39;98292.63;5015606;28;20063;-82
2023/08/17 09:35:08;;;;;;;8.50;7.70;;;;;;;28.79;55.12;98252.84;5019034;28;20491;-82
2023/08/17 09:37:36;;;;;;;8.95;8.05;;;;;;;29.06;56.00;98295.41;5031845;28;20537;-80
2023/08/17 09:40:03;;;;;;;9.13;8.23;;;;;;;28.75;54.61;98286.00;5014558;28;20029;-82
2023/08/17 09:42:29;;;;;;;9.13;8.02;;;;;;;28.62;54.00;98245.72;5021829;28;20033;-81
2023/08/17 09:44:57;;;;;;;8.05;7.25;;;;;;;29.04;55.05;98281.09;5022178;28;20079;-81
2023/08/17 09:47:23;;;;;;;8.32;7.53;;;;;;;29.20;55.65;98276.31;5025286;28;20041;-81
2023/08/17 09:49:50;;;;;;;9.75;8.10;;;;;;;28.75;54.41;98241.66;5031807;28;20055;-82
2023/08/17 09:52:15;;;;;;;10.18;8.40;;;;;;;29.11;53.54;98275.72;5013528;28;20128;-81
2023/08/17 09:54:47;;;;;;;9.30;8.30;;;;;;;29.33;54.99;98286.13;5012329;28;20099;-81
2023/08/17 09:57:14;;;;;;;8.80;7.90;;;;;;;29.57;53.79;98288.59;5016170;28;20036;-82
2023/08/17 09:59:40;;;;;;;9.38;8.15;;;;;;;29.55;54.05;98274.28;5026796;28;20021;-82
2023/08/17 10:02:20;;;;;;;9.13;8.07;;;;;;;29.50;51.90;98271.78;5006313;28;20037;-83
2023/08/17 10:04:51;;;;;;;8.00;7.30;;;;;;;29.57;53.18;98263.59;5012562;28;20033;-82
2023/08/17 10:07:20;;;;;;;9.65;8.77;;;;;;;29.59;51.58;98252.16;5028675;28;20034;-82
2023/08/17 10:10:34;;;;;;;10.02;9.02;;;;;;;29.49;52.15;98284.09;5003831;28;20032;-82
2023/08/17 10:13:39;;;;;;;8.52;7.72;;;;;;;29.71;51.90;98277.75;5031999;28;20041;-82
2023/08/17 10:16:52;;;;;;;10.40;8.20;;;;;;;29.79;52.53;98256.53;5061014;28;20051;-81
2023/08/17 10:19:34;;;;;;;8.43;7.60;;;;;;;30.07;52.21;98262.59;5023016;28;20036;-82
2023/08/17 10:22:15;;;;;;;9.13;8.23;;;;;;;30.07;52.09;98243.13;5034432;28;20108;-82
2023/08/17 10:24:41;;;;;;;9.55;7.80;;;;;;;30.03;51.62;98240.31;5038117;28;20072;-82
2023/08/17 10:27:10;;;;;;;8.38;7.30;;;;;;;30.14;50.83;98236.88;4997443;28;20048;-81
2023/08/17 10:29:41;;;;;;;8.27;7.47;;;;;;;30.50;49.80;98272.47;5024532;28;20044;-82
2023/08/17 10:32:29;;;;;;;7.82;7.13;;;;;;;30.39;50.08;98272.28;5044011;28;20044;-82
2023/08/17 10:34:57;;;;;;;9.00;8.20;;;;;;;30.22;51.16;98241.41;5025830;28;20032;-83
2023/08/17 10:37:24;;;;;;;9.55;8.20;;;;;;;30.13;51.51;98222.19;5005107;28;20137;-82
2023/08/17 10:39:50;;;;;;;8.20;7.20;;;;;;;30.51;50.88;98227.59;5018144;28;20132;-81
2023/08/17 10:42:34;;;;;;;9.70;8.10;;;;;;;30.70;48.09;98246.16;4998568;28;20475;-83
2023/08/17 10:45:21;;;;;;;8.98;8.05;;;;;;;30.37;48.75;98196.00;4998901;28;20685;-82
2023/08/17 10:47:47;;;;;;;11.05;7.68;;;;;;;30.83;50.31;98244.75;5027833;28;20041;-81
2023/08/17 10:50:26;;;;;;;8.25;7.45;;;;;;;30.93;48.39;98221.88;5024805;28;20470;-81
2023/08/17 10:52:57;;;;;;;8.05;7.25;;;;;;;31.20;47.24;98242.09;5024249;28;20045;-81
2023/08/17 10:55:42;;;;;;;7.93;7.22;;;;;;;31.33;47.95;98246.22;5019399;28;20039;-81
2023/08/17 10:58:08;;;;;;;8.03;6.90;;;;;;;31.34;45.52;98231.91;5013428;28;20099;-82
2023/08/17 11:01:20;;;;;;;8.77;7.68;;;;;;;31.02;46.53;98243.84;5023454;28;20032;-80
2023/08/17 11:03:46;;;;;;;9.25;7.78;;;;;;;31.14;46.03;98241.63;5014501;28;20036;-82
2023/08/17 11:06:15;;;;;;;7.57;6.85;;;;;;;31.23;44.74;98216.28;5010698;28;20032;-82
2023/08/17 11:08:53;;;;;;;6.82;6.10;;;;;;;31.30;44.67;98208.81;5024168;28;20033;-81
2023/08/17 11:11:20;;;;;;;8.10;7.30;;;;;;;30.96;46.14;98182.16;5042606;28;20029;-81
2023/08/17 11:13:47;;;;;;;8.55;7.38;;;;;;;31.24;46.48;98243.75;5013255;28;20021;-81
2023/08/17 11:16:15;;;;;;;7.43;6.82;;;;;;;31.61;44.91;98246.59;5016204;28;20032;-81
2023/08/17 11:18:42;;;;;;;8.13;7.43;;;;;;;31.80;44.04;98237.22;5011663;28;20043;-82
2023/08/17 11:21:10;;;;;;;9.20;7.07;;;;;;;31.69;44.39;98203.72;5009278;28;20120;-81
2023/08/17 11:23:37;;;;;;;9.00;7.20;;;;;;;31.91;44.55;98215.84;5036057;28;20031;-83
2023/08/17 11:26:03;;;;;;;8.57;7.65;;;;;;;32.21;43.96;98236.03;5008843;28;20144;-81
2023/08/17 11:28:38;;;;;;;8.48;7.57;;;;;;;32.36;43.69;98237.75;5031691;28;20021;-80
2023/08/17 11:31:08;;;;;;;;;;;;;;;32.04;42.23;98234.69;5018684;28;20036;-81
2023/08/17 11:33:35;;;;;;;7.78;6.80;;;;;;;31.87;44.22;98201.88;5028125;28;20007;-81
2023/08/17 11:36:03;;;;;;;8.85;7.65;;;;;;;32.08;44.05;98215.22;5007504;28;20116;-80
2023/08/17 11:38:37;;;;;;;9.55;8.50;;;;;;;32.07;43.45;98210.81;5013217;28;20045;-83
2023/08/17 11:41:03;;;;;;;9.35;7.65;;;;;;;32.19;44.80;98232.84;5035045;28;20040;-81
2023/08/17 11:43:29;;;;;;;9.50;7.47;;;;;;;31.94;42.92;98192.78;5029150;28;20470;-82
2023/08/17 11:46:01;;;;;;;8.57;7.70;;;;;;;31.65;42.78;98196.50;5027782;28;20064;-81
2023/08/17 11:48:27;;;;;;;9.32;7.28;;;;;;;32.19;43.48;98232.84;5010754;28;20079;-81
2023/08/17 11:50:54;;;;;;;8.73;7.82;;;;;;;32.51;42.81;98228.31;5017653;28;20024;-83
2023/08/17 11:53:20;;;;;;;7.95;7.20;;;;;;;32.28;42.54;98236.09;5030434;28;20380;-83
2023/08/17 11:55:46;;;;;;;8.43;7.63;;;;;;;32.36;41.88;98237.75;5010418;28;20040;-82
2023/08/17 11:58:12;;;;;;;7.93;7.13;;;;;;;32.73;42.20;98227.28;5012494;28;20033;-82
2023/08/17 12:00:44;;;;;;;9.52;7.45;;;;;;;32.74;42.42;98198.19;5030110;28;20029;-81
2023/08/17 12:03:15;;;;;;;9.98;8.38;;;;;;;32.80;42.45;98200.59;5030485;28;20028;-81
2023/08/17 12:05:42;;;;;;;10.25;7.90;;;;;;;33.19;40.90;98218.34;5026455;28;20032;-81
2023/08/17 12:08:08;;;;;;;8.55;7.07;;;;;;;33.39;40.32;98216.84;5012162;28;20483;-81
2023/08/17 12:10:39;;;;;;;8.55;7.65;;;;;;;33.05;40.26;98196.00;5052471;28;20441;-81
2023/08/17 12:13:05;;;;;;;8.45;7.60;;;;;;;32.83;39.60;98183.09;5028676;28;20033;-81
2023/08/17 12:15:33;;;;;;;8.57;7.68;;;;;;;33.09;40.65;98213.56;5022735;28;20031;-82
2023/08/17 12:18:00;;;;;;;8.50;7.68;;;;;;;33.12;41.28;98210.75;5028513;28;20028;-81
2023/08/17 12:20:26;;;;;;;8.60;7.75;;;;;;;33.23;41.75;98211.63;5019623;28;20029;-81
2023/08/17 12:22:52;;;;;;;9.50;7.80;;;;;;;33.13;41.35;98183.66;5022187;28;20048;-81
2023/08/17 12:25:22;;;;;;;9.75;7.30;;;;;;;33.30;40.39;98199.69;5009438;28;20126;-81
2023/08/17 12:27:48;;;;;;;8.73;7.07;;;;;;;33.11;39.81;98202.78;5023190;28;20032;-80
2023/08/17 12:30:28;;;;;;;8.60;7.65;;;;;;;33.19;39.34;98196.84;5026049;28;20029;-78
2023/08/17 12:36:09;;;;;;;10.73;7.47;;;;;;;33.10;40.71;98153.72;5049078;28;20076;-80
2023/08/17 12:38:34;;;;;;;8.38;7.50;;;;;;;33.53;40.75;98200.16;5032081;28;20033;-81
2023/08/17 12:41:02;;;;;;;8.43;7.15;;;;;;;33.57;38.43;98150.69;5020960;28;20023;-81
2023/08/17 12:43:28;;;;;;;6.97;6.28;;;;;;;33.85;37.58;98189.84;5011289;28;20041;-82
2023/08/17 12:45:55;;;;;;;8.30;7.38;;;;;;;34.03;37.64;98179.47;5016357;28;20163;-81
2023/08/17 12:48:22;;;;;;;8.07;7.38;;;;;;;34.01;38.64;98158.69;5012610;28;20029;-81
2023/08/17 12:50:50;;;;;;;7.95;7.15;;;;;;;33.98;39.07;98146.28;5009829;28;20426;-81
2023/08/17 12:53:17;;;;;;;10.73;6.95;;;;;;;33.56;39.01;98137.91;5010742;28;20029;-81
2023/08/17 12:55:44;;;;;;;8.82;7.30;;;;;;;33.57;40.21;98144.28;5012923;28;20056;-81
2023/08/17 12:58:10;;;;;;;10.00;7.63;;;;;;;33.95;38.57;98121.16;5039008;28;20037;-81
2023/08/17 13:00:38;;;;;;;7.55;6.95;;;;;;;34.41;37.68;98133.09;5008845;28;20035;-81
2023/08/17 13:03:06;;;;;;;8.93;7.78;;;;;;;33.91;37.54;98148.31;5009253;28;20040;-81
2023/08/17 13:05:33;;;;;;;7.88;7.18;;;;;;;33.64;39.02;98167.44;5025813;28;20029;-82
2023/08/17 13:07:59;;;;;;;7.68;7.00;;;;;;;33.79;39.39;98171.06;5004792;28;20036;-81
2023/08/17 13:10:25;;;;;;;7.97;6.93;;;;;;;34.31;37.36;98169.50;5009034;28;20017;-77
2023/08/17 13:12:54;;;;;;;7.60;6.90;;;;;;;34.53;37.83;98160.69;5027112;28;20438;-78
2023/08/17 13:15:23;;;;;;;8.75;7.15;;;;;;;34.50;36.39;98146.66;5065318;28;20392;-77
2023/08/17 13:17:48;;;;;;;7.53;6.75;;;;;;;34.74;36.42;98148.63;5045291;28;20079;-77
2023/08/17 13:20:13;;;;;;;9.07;7.10;;;;;;;34.30;38.91;98149.13;5008920;28;20494;-80
2023/08/17 13:22:39;;;;;;;8.02;7.18;;;;;;;34.18;38.26;98145.91;5008370;28;20124;-80
2023/08/17 13:25:05;;;;;;;8.60;6.75;;;;;;;33.35;39.25;98104.34;5015704;28;20108;-82
2023/08/17 13:27:31;;;;;;;7.95;7.15;;;;;;;33.27;40.08;98130.66;5029810;28;20063;-82
2023/08/17 13:29:58;;;;;;;7.63;6.75;;;;;;;33.27;40.11;98147.41;5008820;28;20033;-81
2023/08/17 13:32:25;;;;;;;9.25;7.60;;;;;;;33.09;38.95;98129.81;5023927;28;20038;-81
2023/08/17 13:34:50;;;;;;;9.90;7.22;;;;;;;33.79;37.82;98152.31;5014072;28;20046;-81
2023/08/17 13:37:15;;;;;;;8.50;7.13;;;;;;;33.44;37.93;98146.66;5021111;28;20501;-81
2023/08/17 13:39:41;;;;;;;8.77;6.97;;;;;;;32.90;38.42;98152.44;5005953;28;20468;-82
2023/08/17 13:42:07;;;;;;;8.25;7.10;;;;;;;32.45;39.49;98112.72;5017356;28;20020;-81
2023/08/17 13:44:32;;;;;;;7.80;7.10;;;;;;;32.74;39.66;98147.19;5010566;28;20091;-82
2023/08/17 13:46:57;;;;;;;7.90;7.20;;;;;;;32.24;39.88;98107.03;5003096;28;20483;-81
2023/08/17 13:49:23;;;;;;;8.60;7.30;;;;;;;32.20;40.05;98106.22;5008901;28;20047;-82
2023/08/17 13:51:52;;;;;;;8.40;7.32;;;;;;;32.09;40.14;98105.34;5034803;28;20036;-82
2023/08/17 13:54:17;;;;;;;8.25;7.45;;;;;;;32.11;41.12;98122.50;5001843;28;20024;-83
2023/08/17 13:56:43;;;;;;;8.55;7.75;;;;;;;31.99;41.42;98117.22;5019219;28;20036;-82
2023/08/17 13:59:33;;;;;;;9.77;7.15;;;;;;;32.33;40.00;98115.84;5007801;28;20040;-82
2023/08/17 14:02:00;;;;;;;10.93;7.43;;;;;;;32.46;40.00;98105.97;5008863;28;20513;-82
2023/08/17 14:04:26;;;;;;;8.32;7.53;;;;;;;32.09;40.81;98049.63;5013670;28;20074;-83
2023/08/17 14:06:52;;;;;;;7.68;6.93;;;;;;;32.60;39.75;98114.41;5012322;28;20037;-81
2023/08/17 14:09:17;;;;;;;8.65;7.15;;;;;;;32.94;39.87;98103.81;5043679;28;20029;-81
2023/08/17 14:11:45;;;;;;;8.18;7.45;;;;;;;33.67;38.51;98098.81;5020086;28;20120;-82
2023/08/17 14:14:11;;;;;;;10.13;7.05;;;;;;;34.04;37.87;98060.88;5027069;28;20436;-82
2023/08/17 14:16:36;;;;;;;9.38;7.32;;;;;;;34.63;36.61;98072.31;5004905;28;20124;-83
2023/08/17 14:19:02;;;;;;;7.78;6.97;;;;;;;34.83;35.72;98041.81;5007106;28;20029;-83
2023/08/17 14:21:28;;;;;;;8.27;7.25;;;;;;;35.39;34.81;98070.28;5018895;28;20472;-83
2023/08/17 14:23:53;;;;;;;8.23;7.43;;;;;;;35.65;34.18;98079.31;5017375;28;20028;-81
2023/08/17 14:26:19;;;;;;;9.48;7.50;;;;;;;35.61;33.81;98048.53;5018309;28;20040;-82
2023/08/17 14:28:44;;;;;;;7.65;6.82;;;;;;;35.77;33.36;98062.81;5026688;28;20021;-81
2023/08/17 14:31:15;;;;;;;9.30;7.63;;;;;;;35.72;33.99;98031.63;5011100;28;20680;-81
2023/08/17 14:33:41;;;;;;;8.85;7.85;;;;;;;35.93;33.79;98065.06;5008858;28;20029;-81
2023/08/17 14:36:09;;;;;;;9.02;7.95;;;;;;;35.76;34.17;98037.97;5012338;28;20171;-81
2023/08/17 14:38:37;;;;;;;7.97;7.05;;;;;;;35.82;33.93;98027.94;5000378;28;20042;-82
2023/08/17 14:41:07;;;;;;;8.93;6.90;;;;;;;35.58;34.52;98031.75;5011803;28;20029;-82
2023/08/17 14:43:32;;;;;;;8.63;7.82;;;;;;;35.14;35.71;98068.88;5027398;28;20048;-83
2023/08/17 14:46:01;;;;;;;10.07;8.02;;;;;;;34.24;37.46;98049.25;5021880;28;20035;-82
2023/08/17 14:48:26;;;;;;;8.90;7.57;;;;;;;34.08;38.24;98056.06;5011052;28;20124;-79
2023/08/17 14:50:52;;;;;;;10.10;8.50;;;;;;;33.59;38.69;98036.53;5017973;28;20438;-82
2023/08/17 14:53:18;;;;;;;8.35;7.65;;;;;;;32.89;39.84;98000.94;5010168;28;20033;-83
2023/08/17 14:55:43;;;;;;;8.20;7.10;;;;;;;32.51;39.94;98002.41;5009049;28;20556;-82
2023/08/17 14:58:09;;;;;;;9.73;7.40;;;;;;;32.28;40.50;98001.91;5024777;28;20033;-83
2023/08/17 15:00:35;;;;;;;12.05;7.80;;;;;;;32.37;40.83;98048.97;5025366;28;20463;-82